Terminal Aerodrome Forecast
Issued by NWS

Home | Current Version | Previous Version | Text Only | Print | Product List | Glossary On
Versions: 1 2 3 4 5 6 7 8 9 10 11 12 13 14 15
000
FTUS43 KSGF 302300
TAFBBG
TAF
KBBG 302321Z 3100/3124 31006KT P6SM SKC WS020/01035KT
     FM311000 32006KT P6SM SCT035 WS019/35035KT
     FM311400 33012G20KT P6SM BKN030
     FM312000 35012G22KT P6SM SCT040=

USA.gov is the U.S. government's official web portal to all federal, state and local government web resources and services.